Teresa Mcallister — WDC6818 — position and weather

sailwx.info

Track history (hours):
 
Tides and Currents Weather Stations Pressure Air Temp Water Temp Dewpoint Dewpoint Depression Visibility Wind Speed Wind Dir Waves Ship Positions

Teresa Mcallister

Owner: McAllister Towing of Philadelphia, INC, Philadelphia, PA. More information available from US FCC via Universal Licensing System and Coast Guard Vessel Documentation Center.

Last reported at 2018-Feb-14 02:44 UTC. Time now 2018-Feb-22 13:10 UTC.
Position N 39°54' W 075°12'.
Warning: this ship's position is 8 days out of date.

Length 28 m.

Type: Tug. MMSI: 367061730.

Date/timePositionNaut miles runAvg speedWind from/ knotsBaromVisibWave heightAir tempDewpointWater temp
2018-Feb-14 02:44N 39°54' W 075°12'1 3.7
2018-Feb-14 02:30N 39°53' W 075°11'3 6.0
2018-Feb-14 02:00N 39°54' W 075°08'1 1.1
2018-Feb-14 01:30N 39°54' W 075°08'0 0.4
2018-Feb-14 01:01N 39°54' W 075°08'2 3.6
2018-Feb-14 00:30N 39°53' W 075°10'1 1.2
2018-Feb-14 00:01N 39°53' W 075°11'1 0.2
2018-Feb-13 17:50N 39°54' W 075°12'2 6.3
2018-Feb-13 17:31N 39°52' W 075°13'3 5.4
2018-Feb-13 17:00N 39°51' W 075°16'0 0.0
2018-Feb-13 16:30N 39°51' W 075°16'1 1.0
2018-Feb-13 16:00N 39°51' W 075°17'1 1.1
2018-Feb-13 15:30N 39°51' W 075°16'0 0.7
2018-Feb-13 15:00N 39°51' W 075°16'0 0.0
2018-Feb-13 14:30N 39°51' W 075°16'0 0.0
2018-Feb-13 14:00N 39°51' W 075°16'0 0.0
2018-Feb-13 13:30N 39°51' W 075°16'0 0.0
2018-Feb-13 13:00N 39°51' W 075°16'4 8.1
2018-Feb-13 12:30N 39°53' W 075°11'3 6.3
2018-Feb-13 12:00N 39°54' W 075°08'0 0.2
2018-Feb-13 11:30N 39°54' W 075°08'2 3.7
2018-Feb-13 11:00N 39°53' W 075°09'1 1.7
2018-Feb-13 10:30N 39°53' W 075°10'2 4.4
2018-Feb-13 10:00N 39°54' W 075°08'0 0.0
2018-Feb-13 09:30N 39°54' W 075°08'0 0.0
2018-Feb-13 09:00N 39°54' W 075°08'0 0.0
2018-Feb-13 08:30N 39°54' W 075°08'0 0.0
2018-Feb-13 08:01N 39°54' W 075°08'0 0.0
2018-Feb-13 07:30N 39°54' W 075°08'0 0.0
2018-Feb-13 07:00N 39°54' W 075°08'0 0.0
2018-Feb-13 06:30N 39°54' W 075°08'0 0.0
2018-Feb-13 06:00N 39°54' W 075°08'0 0.2
2018-Feb-13 05:31N 39°54' W 075°08'0 0.2
2018-Feb-13 05:00N 39°54' W 075°08'0 0.9
2018-Feb-13 04:31N 39°54' W 075°08'0 0.0
2018-Feb-13 04:00N 39°54' W 075°08'0 0.0
2018-Feb-13 03:30N 39°54' W 075°08'3 6.4
2018-Feb-13 03:00N 39°53' W 075°12'510.6
2018-Feb-13 02:30N 39°51' W 075°19'5 9.8
2018-Feb-13 02:00N 39°49' W 075°24'0 0.0
2018-Feb-13 01:30N 39°49' W 075°24'0 0.0
2018-Feb-13 01:00N 39°49' W 075°24'0 0.2
2018-Feb-13 00:30N 39°49' W 075°24'1 1.2
2018-Feb-13 00:00N 39°48' W 075°25'0 0.2
2018-Feb-12 23:31N 39°48' W 075°25'0 0.0
2018-Feb-12 23:00N 39°48' W 075°25'1 1.2
2018-Feb-12 22:30N 39°49' W 075°24'5 9.9
2018-Feb-12 22:00N 39°51' W 075°19'510.4
2018-Feb-12 21:30N 39°53' W 075°12'1 2.3
2018-Feb-12 21:00N 39°54' W 075°12'0 0.0
2018-Feb-12 20:30N 39°54' W 075°12'0 0.0
2018-Feb-12 20:00N 39°54' W 075°12'0 0.0
2018-Feb-12 19:30N 39°54' W 075°12'0 0.0
2018-Feb-12 19:00N 39°54' W 075°12'0 0.0
2018-Feb-12 18:30N 39°54' W 075°12'0 0.0
2018-Feb-12 18:00N 39°54' W 075°12'0 0.0
2018-Feb-12 17:30N 39°54' W 075°12'0 0.0
2018-Feb-12 17:00N 39°54' W 075°12'0 0.0
2018-Feb-12 16:30N 39°54' W 075°12'0 0.0
2018-Feb-12 16:00N 39°54' W 075°12'0 0.0
2018-Feb-12 15:30N 39°54' W 075°12'0 0.0
2018-Feb-12 15:00N 39°54' W 075°12'0 0.0
2018-Feb-12 14:30N 39°54' W 075°12'0 0.0
2018-Feb-12 14:00N 39°54' W 075°12'0 0.0
2018-Feb-12 13:31N 39°54' W 075°12'0 0.0
2018-Feb-12 13:01N 39°54' W 075°12'0 0.0
2018-Feb-12 12:31N 39°54' W 075°12'0 0.0
2018-Feb-12 12:00N 39°54' W 075°12'0 0.0
2018-Feb-12 11:30N 39°54' W 075°12'0 0.0
2018-Feb-12 11:00N 39°54' W 075°12'0 0.0
2018-Feb-12 10:30N 39°54' W 075°12'0 0.0
2018-Feb-12 10:00N 39°54' W 075°12'0 0.0
2018-Feb-12 09:30N 39°54' W 075°12'0 0.0
2018-Feb-12 09:01N 39°54' W 075°12'0 0.0
2018-Feb-12 08:30N 39°54' W 075°12'0 0.0
2018-Feb-12 08:00N 39°54' W 075°12'0 0.0
2018-Feb-12 07:30N 39°54' W 075°12'0 0.0
2018-Feb-12 07:00N 39°54' W 075°12'0 0.0
2018-Feb-12 06:30N 39°54' W 075°12'0 0.0
2018-Feb-12 06:00N 39°54' W 075°12'0 0.0
2018-Feb-12 05:30N 39°54' W 075°12'0 0.0
2018-Feb-12 05:00N 39°54' W 075°12'0 0.0
2018-Feb-12 04:30N 39°54' W 075°12'0 0.0
2018-Feb-12 04:00N 39°54' W 075°12'0 0.0
2018-Feb-12 03:30N 39°54' W 075°12'0 0.0
2018-Feb-12 03:01N 39°54' W 075°12'0 0.0
2018-Feb-12 02:30N 39°54' W 075°12'0 0.0
2018-Feb-12 02:00N 39°54' W 075°12'0 0.0
2018-Feb-12 01:30N 39°54' W 075°12'0 0.0
2018-Feb-12 01:00N 39°54' W 075°12'0 0.0
2018-Feb-12 00:30N 39°54' W 075°12'0 0.0
2018-Feb-12 00:00N 39°54' W 075°12'0 0.0
2018-Feb-11 23:30N 39°54' W 075°12'0 0.0
2018-Feb-11 23:00N 39°54' W 075°12'0 0.0
2018-Feb-11 22:30N 39°54' W 075°12'0 0.0
2018-Feb-11 22:00N 39°54' W 075°12'0 0.0
2018-Feb-11 21:30N 39°54' W 075°12'0 0.0
2018-Feb-11 21:00N 39°54' W 075°12'0 0.0
2018-Feb-11 20:30N 39°54' W 075°12'0 0.0
2018-Feb-11 20:00N 39°54' W 075°12'0 0.0
2018-Feb-11 19:30N 39°54' W 075°12'0 0.0
2018-Feb-11 19:00N 39°54' W 075°12'0 0.0
2018-Feb-11 18:30N 39°54' W 075°12'0 0.0
2018-Feb-11 18:00N 39°54' W 075°12'0 0.0
2018-Feb-11 17:30N 39°54' W 075°12'0 0.0
2018-Feb-11 17:01N 39°54' W 075°12'0 0.0
2018-Feb-11 16:30N 39°54' W 075°12'0 0.0
2018-Feb-11 16:00N 39°54' W 075°12'0 0.0
2018-Feb-11 15:30N 39°54' W 075°12'0 0.0
2018-Feb-11 15:00N 39°54' W 075°12'0 0.0
2018-Feb-11 14:30N 39°54' W 075°12'0 0.0
2018-Feb-11 14:00N 39°54' W 075°12'0 0.0
2018-Feb-11 13:30N 39°54' W 075°12'0 0.0
2018-Feb-11 13:00N 39°54' W 075°12'0 0.0
2018-Feb-11 12:30N 39°54' W 075°12'0 0.0
2018-Feb-11 12:00N 39°54' W 075°12'0 0.0
2018-Feb-11 11:30N 39°54' W 075°12'0 0.0
2018-Feb-11 11:00N 39°54' W 075°12'0 0.0
2018-Feb-11 10:30N 39°54' W 075°12'0 0.0
2018-Feb-11 10:00N 39°54' W 075°12'0 0.0
2018-Feb-11 09:30N 39°54' W 075°12'0 0.0
2018-Feb-11 09:00N 39°54' W 075°12'0 0.0
2018-Feb-11 08:30N 39°54' W 075°12'0 0.0
2018-Feb-11 08:00N 39°54' W 075°12'0 0.0
2018-Feb-11 07:30N 39°54' W 075°12'0 0.0
2018-Feb-11 07:00N 39°54' W 075°12'0 0.0
2018-Feb-11 06:30N 39°54' W 075°12'0 0.0
2018-Feb-11 06:00N 39°54' W 075°12'0 0.0
2018-Feb-11 05:30N 39°54' W 075°12'0 0.0
2018-Feb-11 05:00N 39°54' W 075°12'0 0.0
2018-Feb-11 04:30N 39°54' W 075°12'0 0.0
2018-Feb-11 04:00N 39°54' W 075°12'0 0.0
2018-Feb-11 03:30N 39°54' W 075°12'0 0.0
2018-Feb-11 02:59N 39°54' W 075°12'0 0.0
2018-Feb-11 02:30N 39°54' W 075°12'0 0.0
2018-Feb-11 02:00N 39°54' W 075°12'0 0.0
2018-Feb-11 01:30N 39°54' W 075°12'0 0.0
2018-Feb-11 01:00N 39°54' W 075°12'0 0.0
2018-Feb-11 00:30N 39°54' W 075°12'0 0.0
2018-Feb-11 00:00N 39°54' W 075°12'0 0.0
2018-Feb-10 23:30N 39°54' W 075°12'0 0.0
2018-Feb-10 23:00N 39°54' W 075°12'0 0.0
2018-Feb-10 22:30N 39°54' W 075°12'0 0.0
2018-Feb-10 22:00N 39°54' W 075°12'0 0.0
2018-Feb-10 21:30N 39°54' W 075°12'0 0.0
2018-Feb-10 21:00N 39°54' W 075°12'0 0.0
2018-Feb-10 20:30N 39°54' W 075°12'0 0.0
2018-Feb-10 20:00N 39°54' W 075°12'0 0.0
2018-Feb-10 19:30N 39°54' W 075°12'0 0.0
2018-Feb-10 19:00N 39°54' W 075°12'0 0.0
2018-Feb-10 18:30N 39°54' W 075°12'0 0.0
2018-Feb-10 18:00N 39°54' W 075°12'0 0.0
2018-Feb-10 17:30N 39°54' W 075°12'0 0.0
2018-Feb-10 17:00N 39°54' W 075°12'0 0.0
2018-Feb-10 16:30N 39°54' W 075°12'0 0.0
2018-Feb-10 16:00N 39°54' W 075°12'0 0.0
2018-Feb-10 15:30N 39°54' W 075°12'0 0.0
2018-Feb-10 15:00N 39°54' W 075°12'0 0.0
2018-Feb-10 14:30N 39°54' W 075°12'0 0.0
2018-Feb-10 14:00N 39°54' W 075°12'0 0.0
2018-Feb-10 13:31N 39°54' W 075°12'0 0.0
2018-Feb-10 13:00N 39°54' W 075°12'0 0.0
2018-Feb-10 12:30N 39°54' W 075°12'0 0.0
2018-Feb-10 12:00N 39°54' W 075°12'0 0.0
2018-Feb-10 11:30N 39°54' W 075°12'0 0.0
2018-Feb-10 11:00N 39°54' W 075°12'0 0.0
2018-Feb-10 10:30N 39°54' W 075°12'0 0.0
2018-Feb-10 10:00N 39°54' W 075°12'0 0.0
2018-Feb-10 09:30N 39°54' W 075°12'0 0.0
2018-Feb-10 09:00N 39°54' W 075°12'0 0.0
2018-Feb-10 08:30N 39°54' W 075°12'0 0.0
2018-Feb-10 08:00N 39°54' W 075°12'0 0.0
2018-Feb-10 07:30N 39°54' W 075°12'0 0.0
2018-Feb-10 07:00N 39°54' W 075°12'0 0.0
2018-Feb-10 06:30N 39°54' W 075°12'0 0.0
2018-Feb-10 06:00N 39°54' W 075°12'0 0.0
2018-Feb-10 05:30N 39°54' W 075°12'0 0.0
2018-Feb-10 05:00N 39°54' W 075°12'0 0.0
2018-Feb-10 04:30N 39°54' W 075°12'0 0.0
2018-Feb-10 04:00N 39°54' W 075°12'0 0.0
2018-Feb-10 03:31N 39°54' W 075°12'0 0.0
2018-Feb-10 03:00N 39°54' W 075°12'0 0.0
2018-Feb-10 02:30N 39°54' W 075°12'0 0.0
2018-Feb-10 02:00N 39°54' W 075°12'0 0.0
2018-Feb-10 01:30N 39°54' W 075°12'0 0.0
2018-Feb-10 01:00N 39°54' W 075°12'0 0.0
2018-Feb-10 00:30N 39°54' W 075°12'0 0.0
2018-Feb-10 00:00N 39°54' W 075°12'0 0.0
2018-Feb-09 23:30N 39°54' W 075°12'0 0.0
2018-Feb-09 23:00N 39°54' W 075°12'0 0.0
2018-Feb-09 22:46N 39°54' W 075°12'0 0.0
2018-Feb-09 22:00N 39°54' W 075°12'0 0.0
2018-Feb-09 21:30N 39°54' W 075°12'0 0.0
2018-Feb-09 21:00N 39°54' W 075°12'0 0.0
2018-Feb-09 20:31N 39°54' W 075°12'0 0.0
2018-Feb-09 20:00N 39°54' W 075°12'0 0.0
2018-Feb-09 19:00N 39°54' W 075°12'0 0.0
2018-Feb-09 18:30N 39°54' W 075°12'0 0.0
2018-Feb-09 18:01N 39°54' W 075°12'0 0.0
2018-Feb-09 17:30N 39°54' W 075°12'0 0.0
2018-Feb-09 17:00N 39°54' W 075°12'0 0.0
2018-Feb-09 16:30N 39°54' W 075°12'0 0.0
2018-Feb-09 16:00N 39°54' W 075°12'0 0.0
2018-Feb-09 15:30N 39°54' W 075°12'0 0.0
2018-Feb-09 13:30N 39°54' W 075°12'0 0.0
2018-Feb-09 13:00N 39°54' W 075°12'0 0.0
2018-Feb-09 12:30N 39°54' W 075°12'0 0.0
2018-Feb-09 11:30N 39°54' W 075°12'0 0.0
2018-Feb-09 11:00N 39°54' W 075°12'0 0.0
2018-Feb-09 10:30N 39°54' W 075°12'0 0.0
2018-Feb-09 10:00N 39°54' W 075°12'0 0.0
2018-Feb-09 09:30N 39°54' W 075°12'0 0.0
2018-Feb-09 07:30N 39°54' W 075°12'0 0.0
2018-Feb-09 07:00N 39°54' W 075°12'6 4.3
2018-Feb-09 05:30N 39°51' W 075°19'4 4.4
2018-Feb-09 04:30N 39°49' W 075°24'8 5.2
2018-Feb-09 03:00N 39°43' W 075°31'0 0.1
2018-Feb-09 02:30N 39°43' W 075°31'1 1.9
2018-Feb-09 02:00N 39°42' W 075°31'5 9.3
2018-Feb-09 01:30N 39°38' W 075°34'4 2.8
2018-Feb-09 00:00N 39°34' W 075°34'1 0.7
2018-Feb-08 22:00N 39°35' W 075°35'0 0.0
2018-Feb-08 21:30N 39°35' W 075°35'0 0.0
2018-Feb-08 20:30N 39°35' W 075°35'0 0.0
2018-Feb-08 20:00N 39°35' W 075°35'1 2.7
2018-Feb-08 19:30N 39°35' W 075°34'  
Track history (hours):
 
Tides and Currents Weather Stations Pressure Air Temp Water Temp Dewpoint Dewpoint Depression Visibility Wind Speed Wind Dir Waves Ship Positions

Teresa Mcallister

Owner: McAllister Towing of Philadelphia, INC, Philadelphia, PA. More information available from US FCC via Universal Licensing System and Coast Guard Vessel Documentation Center.

Last reported at 2018-Feb-14 02:44 UTC. Time now 2018-Feb-22 13:10 UTC.
Position N 39°54' W 075°12'.
Warning: this ship's position is 8 days out of date.

Length 28 m.

Type: Tug. MMSI: 367061730.

Date/timePositionNaut miles runAvg speedWind from/ knotsBaromVisibWave heightAir tempDewpointWater temp
2018-Feb-14 02:44N 39°54' W 075°12'1 3.7
2018-Feb-14 02:30N 39°53' W 075°11'3 6.0
2018-Feb-14 02:00N 39°54' W 075°08'1 1.1
2018-Feb-14 01:30N 39°54' W 075°08'0 0.4
2018-Feb-14 01:01N 39°54' W 075°08'2 3.6
2018-Feb-14 00:30N 39°53' W 075°10'1 1.2
2018-Feb-14 00:01N 39°53' W 075°11'1 0.2
2018-Feb-13 17:50N 39°54' W 075°12'2 6.3
2018-Feb-13 17:31N 39°52' W 075°13'3 5.4
2018-Feb-13 17:00N 39°51' W 075°16'0 0.0
2018-Feb-13 16:30N 39°51' W 075°16'1 1.0
2018-Feb-13 16:00N 39°51' W 075°17'1 1.1
2018-Feb-13 15:30N 39°51' W 075°16'0 0.7
2018-Feb-13 15:00N 39°51' W 075°16'0 0.0
2018-Feb-13 14:30N 39°51' W 075°16'0 0.0
2018-Feb-13 14:00N 39°51' W 075°16'0 0.0
2018-Feb-13 13:30N 39°51' W 075°16'0 0.0
2018-Feb-13 13:00N 39°51' W 075°16'4 8.1
2018-Feb-13 12:30N 39°53' W 075°11'3 6.3
2018-Feb-13 12:00N 39°54' W 075°08'0 0.2
2018-Feb-13 11:30N 39°54' W 075°08'2 3.7
2018-Feb-13 11:00N 39°53' W 075°09'1 1.7
2018-Feb-13 10:30N 39°53' W 075°10'2 4.4
2018-Feb-13 10:00N 39°54' W 075°08'0 0.0
2018-Feb-13 09:30N 39°54' W 075°08'0 0.0
2018-Feb-13 09:00N 39°54' W 075°08'0 0.0
2018-Feb-13 08:30N 39°54' W 075°08'0 0.0
2018-Feb-13 08:01N 39°54' W 075°08'0 0.0
2018-Feb-13 07:30N 39°54' W 075°08'0 0.0
2018-Feb-13 07:00N 39°54' W 075°08'0 0.0
2018-Feb-13 06:30N 39°54' W 075°08'0 0.0
2018-Feb-13 06:00N 39°54' W 075°08'0 0.2
2018-Feb-13 05:31N 39°54' W 075°08'0 0.2
2018-Feb-13 05:00N 39°54' W 075°08'0 0.9
2018-Feb-13 04:31N 39°54' W 075°08'0 0.0
2018-Feb-13 04:00N 39°54' W 075°08'0 0.0
2018-Feb-13 03:30N 39°54' W 075°08'3 6.4
2018-Feb-13 03:00N 39°53' W 075°12'510.6
2018-Feb-13 02:30N 39°51' W 075°19'5 9.8
2018-Feb-13 02:00N 39°49' W 075°24'0 0.0
2018-Feb-13 01:30N 39°49' W 075°24'0 0.0
2018-Feb-13 01:00N 39°49' W 075°24'0 0.2
2018-Feb-13 00:30N 39°49' W 075°24'1 1.2
2018-Feb-13 00:00N 39°48' W 075°25'0 0.2
2018-Feb-12 23:31N 39°48' W 075°25'0 0.0
2018-Feb-12 23:00N 39°48' W 075°25'1 1.2
2018-Feb-12 22:30N 39°49' W 075°24'5 9.9
2018-Feb-12 22:00N 39°51' W 075°19'510.4
2018-Feb-12 21:30N 39°53' W 075°12'1 2.3
2018-Feb-12 21:00N 39°54' W 075°12'0 0.0
2018-Feb-12 20:30N 39°54' W 075°12'0 0.0
2018-Feb-12 20:00N 39°54' W 075°12'0 0.0
2018-Feb-12 19:30N 39°54' W 075°12'0 0.0
2018-Feb-12 19:00N 39°54' W 075°12'0 0.0
2018-Feb-12 18:30N 39°54' W 075°12'0 0.0
2018-Feb-12 18:00N 39°54' W 075°12'0 0.0
2018-Feb-12 17:30N 39°54' W 075°12'0 0.0
2018-Feb-12 17:00N 39°54' W 075°12'0 0.0
2018-Feb-12 16:30N 39°54' W 075°12'0 0.0
2018-Feb-12 16:00N 39°54' W 075°12'0 0.0
2018-Feb-12 15:30N 39°54' W 075°12'0 0.0
2018-Feb-12 15:00N 39°54' W 075°12'0 0.0
2018-Feb-12 14:30N 39°54' W 075°12'0 0.0
2018-Feb-12 14:00N 39°54' W 075°12'0 0.0
2018-Feb-12 13:31N 39°54' W 075°12'0 0.0
2018-Feb-12 13:01N 39°54' W 075°12'0 0.0
2018-Feb-12 12:31N 39°54' W 075°12'0 0.0
2018-Feb-12 12:00N 39°54' W 075°12'0 0.0
2018-Feb-12 11:30N 39°54' W 075°12'0 0.0
2018-Feb-12 11:00N 39°54' W 075°12'0 0.0
2018-Feb-12 10:30N 39°54' W 075°12'0 0.0
2018-Feb-12 10:00N 39°54' W 075°12'0 0.0
2018-Feb-12 09:30N 39°54' W 075°12'0 0.0
2018-Feb-12 09:01N 39°54' W 075°12'0 0.0
2018-Feb-12 08:30N 39°54' W 075°12'0 0.0
2018-Feb-12 08:00N 39°54' W 075°12'0 0.0
2018-Feb-12 07:30N 39°54' W 075°12'0 0.0
2018-Feb-12 07:00N 39°54' W 075°12'0 0.0
2018-Feb-12 06:30N 39°54' W 075°12'0 0.0
2018-Feb-12 06:00N 39°54' W 075°12'0 0.0
2018-Feb-12 05:30N 39°54' W 075°12'0 0.0
2018-Feb-12 05:00N 39°54' W 075°12'0 0.0
2018-Feb-12 04:30N 39°54' W 075°12'0 0.0
2018-Feb-12 04:00N 39°54' W 075°12'0 0.0
2018-Feb-12 03:30N 39°54' W 075°12'0 0.0
2018-Feb-12 03:01N 39°54' W 075°12'0 0.0
2018-Feb-12 02:30N 39°54' W 075°12'0 0.0
2018-Feb-12 02:00N 39°54' W 075°12'0 0.0
2018-Feb-12 01:30N 39°54' W 075°12'0 0.0
2018-Feb-12 01:00N 39°54' W 075°12'0 0.0
2018-Feb-12 00:30N 39°54' W 075°12'0 0.0
2018-Feb-12 00:00N 39°54' W 075°12'0 0.0
2018-Feb-11 23:30N 39°54' W 075°12'0 0.0
2018-Feb-11 23:00N 39°54' W 075°12'0 0.0
2018-Feb-11 22:30N 39°54' W 075°12'0 0.0
2018-Feb-11 22:00N 39°54' W 075°12'0 0.0
2018-Feb-11 21:30N 39°54' W 075°12'0 0.0
2018-Feb-11 21:00N 39°54' W 075°12'0 0.0
2018-Feb-11 20:30N 39°54' W 075°12'0 0.0
2018-Feb-11 20:00N 39°54' W 075°12'0 0.0
2018-Feb-11 19:30N 39°54' W 075°12'0 0.0
2018-Feb-11 19:00N 39°54' W 075°12'0 0.0
2018-Feb-11 18:30N 39°54' W 075°12'0 0.0
2018-Feb-11 18:00N 39°54' W 075°12'0 0.0
2018-Feb-11 17:30N 39°54' W 075°12'0 0.0
2018-Feb-11 17:01N 39°54' W 075°12'0 0.0
2018-Feb-11 16:30N 39°54' W 075°12'0 0.0
2018-Feb-11 16:00N 39°54' W 075°12'0 0.0
2018-Feb-11 15:30N 39°54' W 075°12'0 0.0
2018-Feb-11 15:00N 39°54' W 075°12'0 0.0
2018-Feb-11 14:30N 39°54' W 075°12'0 0.0
2018-Feb-11 14:00N 39°54' W 075°12'0 0.0
2018-Feb-11 13:30N 39°54' W 075°12'0 0.0
2018-Feb-11 13:00N 39°54' W 075°12'0 0.0
2018-Feb-11 12:30N 39°54' W 075°12'0 0.0
2018-Feb-11 12:00N 39°54' W 075°12'0 0.0
2018-Feb-11 11:30N 39°54' W 075°12'0 0.0
2018-Feb-11 11:00N 39°54' W 075°12'0 0.0
2018-Feb-11 10:30N 39°54' W 075°12'0 0.0
2018-Feb-11 10:00N 39°54' W 075°12'0 0.0
2018-Feb-11 09:30N 39°54' W 075°12'0 0.0
2018-Feb-11 09:00N 39°54' W 075°12'0 0.0
2018-Feb-11 08:30N 39°54' W 075°12'0 0.0
2018-Feb-11 08:00N 39°54' W 075°12'0 0.0
2018-Feb-11 07:30N 39°54' W 075°12'0 0.0
2018-Feb-11 07:00N 39°54' W 075°12'0 0.0
2018-Feb-11 06:30N 39°54' W 075°12'0 0.0
2018-Feb-11 06:00N 39°54' W 075°12'0 0.0
2018-Feb-11 05:30N 39°54' W 075°12'0 0.0
2018-Feb-11 05:00N 39°54' W 075°12'0 0.0
2018-Feb-11 04:30N 39°54' W 075°12'0 0.0
2018-Feb-11 04:00N 39°54' W 075°12'0 0.0
2018-Feb-11 03:30N 39°54' W 075°12'0 0.0
2018-Feb-11 02:59N 39°54' W 075°12'0 0.0
2018-Feb-11 02:30N 39°54' W 075°12'0 0.0
2018-Feb-11 02:00N 39°54' W 075°12'0 0.0
2018-Feb-11 01:30N 39°54' W 075°12'0 0.0
2018-Feb-11 01:00N 39°54' W 075°12'0 0.0
2018-Feb-11 00:30N 39°54' W 075°12'0 0.0
2018-Feb-11 00:00N 39°54' W 075°12'0 0.0
2018-Feb-10 23:30N 39°54' W 075°12'0 0.0
2018-Feb-10 23:00N 39°54' W 075°12'0 0.0
2018-Feb-10 22:30N 39°54' W 075°12'0 0.0
2018-Feb-10 22:00N 39°54' W 075°12'0 0.0
2018-Feb-10 21:30N 39°54' W 075°12'0 0.0
2018-Feb-10 21:00N 39°54' W 075°12'0 0.0
2018-Feb-10 20:30N 39°54' W 075°12'0 0.0
2018-Feb-10 20:00N 39°54' W 075°12'0 0.0
2018-Feb-10 19:30N 39°54' W 075°12'0 0.0
2018-Feb-10 19:00N 39°54' W 075°12'0 0.0
2018-Feb-10 18:30N 39°54' W 075°12'0 0.0
2018-Feb-10 18:00N 39°54' W 075°12'0 0.0
2018-Feb-10 17:30N 39°54' W 075°12'0 0.0
2018-Feb-10 17:00N 39°54' W 075°12'0 0.0
2018-Feb-10 16:30N 39°54' W 075°12'0 0.0
2018-Feb-10 16:00N 39°54' W 075°12'0 0.0
2018-Feb-10 15:30N 39°54' W 075°12'0 0.0
2018-Feb-10 15:00N 39°54' W 075°12'0 0.0
2018-Feb-10 14:30N 39°54' W 075°12'0 0.0
2018-Feb-10 14:00N 39°54' W 075°12'0 0.0
2018-Feb-10 13:31N 39°54' W 075°12'0 0.0
2018-Feb-10 13:00N 39°54' W 075°12'0 0.0
2018-Feb-10 12:30N 39°54' W 075°12'0 0.0
2018-Feb-10 12:00N 39°54' W 075°12'0 0.0
2018-Feb-10 11:30N 39°54' W 075°12'0 0.0
2018-Feb-10 11:00N 39°54' W 075°12'0 0.0
2018-Feb-10 10:30N 39°54' W 075°12'0 0.0
2018-Feb-10 10:00N 39°54' W 075°12'0 0.0
2018-Feb-10 09:30N 39°54' W 075°12'0 0.0
2018-Feb-10 09:00N 39°54' W 075°12'0 0.0
2018-Feb-10 08:30N 39°54' W 075°12'0 0.0
2018-Feb-10 08:00N 39°54' W 075°12'0 0.0
2018-Feb-10 07:30N 39°54' W 075°12'0 0.0
2018-Feb-10 07:00N 39°54' W 075°12'0 0.0
2018-Feb-10 06:30N 39°54' W 075°12'0 0.0
2018-Feb-10 06:00N 39°54' W 075°12'0 0.0
2018-Feb-10 05:30N 39°54' W 075°12'0 0.0
2018-Feb-10 05:00N 39°54' W 075°12'0 0.0
2018-Feb-10 04:30N 39°54' W 075°12'0 0.0
2018-Feb-10 04:00N 39°54' W 075°12'0 0.0
2018-Feb-10 03:31N 39°54' W 075°12'0 0.0
2018-Feb-10 03:00N 39°54' W 075°12'0 0.0
2018-Feb-10 02:30N 39°54' W 075°12'0 0.0
2018-Feb-10 02:00N 39°54' W 075°12'0 0.0
2018-Feb-10 01:30N 39°54' W 075°12'0 0.0
2018-Feb-10 01:00N 39°54' W 075°12'0 0.0
2018-Feb-10 00:30N 39°54' W 075°12'0 0.0
2018-Feb-10 00:00N 39°54' W 075°12'0 0.0
2018-Feb-09 23:30N 39°54' W 075°12'0 0.0
2018-Feb-09 23:00N 39°54' W 075°12'0 0.0
2018-Feb-09 22:46N 39°54' W 075°12'0 0.0
2018-Feb-09 22:00N 39°54' W 075°12'0 0.0
2018-Feb-09 21:30N 39°54' W 075°12'0 0.0
2018-Feb-09 21:00N 39°54' W 075°12'0 0.0
2018-Feb-09 20:31N 39°54' W 075°12'0 0.0
2018-Feb-09 20:00N 39°54' W 075°12'0 0.0
2018-Feb-09 19:00N 39°54' W 075°12'0 0.0
2018-Feb-09 18:30N 39°54' W 075°12'0 0.0
2018-Feb-09 18:01N 39°54' W 075°12'0 0.0
2018-Feb-09 17:30N 39°54' W 075°12'0 0.0
2018-Feb-09 17:00N 39°54' W 075°12'0 0.0
2018-Feb-09 16:30N 39°54' W 075°12'0 0.0
2018-Feb-09 16:00N 39°54' W 075°12'0 0.0
2018-Feb-09 15:30N 39°54' W 075°12'0 0.0
2018-Feb-09 13:30N 39°54' W 075°12'0 0.0
2018-Feb-09 13:00N 39°54' W 075°12'0 0.0
2018-Feb-09 12:30N 39°54' W 075°12'0 0.0
2018-Feb-09 11:30N 39°54' W 075°12'0 0.0
2018-Feb-09 11:00N 39°54' W 075°12'0 0.0
2018-Feb-09 10:30N 39°54' W 075°12'0 0.0
2018-Feb-09 10:00N 39°54' W 075°12'0 0.0
2018-Feb-09 09:30N 39°54' W 075°12'0 0.0
2018-Feb-09 07:30N 39°54' W 075°12'0 0.0
2018-Feb-09 07:00N 39°54' W 075°12'6 4.3
2018-Feb-09 05:30N 39°51' W 075°19'4 4.4
2018-Feb-09 04:30N 39°49' W 075°24'8 5.2
2018-Feb-09 03:00N 39°43' W 075°31'0 0.1
2018-Feb-09 02:30N 39°43' W 075°31'1 1.9
2018-Feb-09 02:00N 39°42' W 075°31'5 9.3
2018-Feb-09 01:30N 39°38' W 075°34'4 2.8
2018-Feb-09 00:00N 39°34' W 075°34'1 0.7
2018-Feb-08 22:00N 39°35' W 075°35'0 0.0
2018-Feb-08 21:30N 39°35' W 075°35'0 0.0
2018-Feb-08 20:30N 39°35' W 075°35'0 0.0
2018-Feb-08 20:00N 39°35' W 075°35'1 2.7
2018-Feb-08 19:30N 39°35' W 075°34'  

Dump ship's entire track history